createdAt,value
2019-01-11T00:00:01.338Z,6.93
2019-01-11T00:02:30.456Z,7.03
2019-01-11T00:04:59.553Z,9.30
2019-01-11T00:07:30.465Z,9.00
2019-01-11T00:09:59.565Z,9.40
2019-01-11T00:12:28.697Z,7.70
2019-01-11T00:14:59.043Z,8.30
2019-01-11T00:17:29.275Z,9.20
2019-01-11T00:20:03.697Z,9.07
2019-01-11T00:22:33.093Z,8.33
2019-01-11T00:25:02.177Z,10.03
2019-01-11T00:27:31.279Z,9.83
2019-01-11T00:30:03.019Z,10.20
2019-01-11T00:32:32.138Z,10.63
2019-01-11T00:35:01.258Z,10.53
2019-01-11T00:37:30.351Z,9.57
2019-01-11T00:40:00.727Z,9.63
2019-01-11T00:42:34.645Z,8.47
2019-01-11T00:45:05.608Z,9.13
2019-01-11T00:47:34.968Z,9.30
2019-01-11T00:50:06.564Z,8.50
2019-01-11T00:52:35.667Z,9.80
2019-01-11T00:55:07.086Z,8.90
2019-01-11T00:57:37.688Z,8.60
2019-01-11T01:00:12.071Z,8.50
2019-01-11T01:02:44.374Z,8.00
2019-01-11T01:05:13.668Z,8.90
2019-01-11T01:07:47.573Z,8.20
2019-01-11T01:10:21.021Z,8.90
2019-01-11T01:12:50.127Z,10.37
2019-01-11T01:15:21.628Z,8.37
2019-01-11T01:17:50.670Z,9.40
2019-01-11T01:20:19.862Z,8.77
2019-01-11T01:22:50.035Z,8.20
2019-01-11T01:25:19.323Z,9.63
2019-01-11T01:27:48.459Z,9.33
2019-01-11T01:30:18.537Z,9.57
2019-01-11T01:32:48.014Z,8.90
2019-01-11T01:35:19.662Z,8.50
2019-01-11T01:37:50.891Z,8.63
2019-01-11T01:40:19.756Z,9.60
2019-01-11T01:42:50.440Z,9.40
2019-01-11T01:45:21.846Z,8.13
2019-01-11T01:47:50.959Z,10.80
2019-01-11T01:50:23.776Z,7.80
2019-01-11T01:53:05.119Z,8.33
2019-01-11T01:55:34.208Z,7.83
2019-01-11T01:58:03.495Z,8.70
2019-01-11T02:00:33.703Z,8.10
2019-01-11T02:03:03.083Z,7.60
2019-01-11T02:05:35.148Z,6.50
2019-01-11T02:08:07.339Z,7.57
2019-01-11T02:10:36.429Z,8.60
2019-01-11T02:13:05.754Z,6.87
2019-01-11T02:15:36.715Z,7.40
2019-01-11T02:18:05.940Z,7.07
2019-01-11T02:20:36.138Z,7.90
2019-01-11T02:23:06.148Z,7.87
2019-01-11T02:25:36.368Z,7.50
2019-01-11T02:28:05.488Z,7.93
2019-01-11T02:30:36.684Z,8.07
2019-01-11T02:33:14.997Z,7.47
2019-01-11T02:35:44.092Z,8.27
2019-01-11T02:38:13.403Z,8.53
2019-01-11T02:40:44.235Z,9.23
2019-01-11T02:43:13.349Z,8.07
2019-01-11T02:45:42.443Z,7.27
2019-01-11T02:48:15.371Z,7.33
2019-01-11T02:50:44.510Z,7.93
2019-01-11T02:53:15.000Z,7.70
2019-01-11T02:55:44.050Z,9.07
2019-01-11T02:58:15.674Z,7.50
2019-01-11T03:00:45.183Z,7.33
2019-01-11T03:03:14.317Z,6.80
2019-01-11T03:05:43.534Z,7.27
2019-01-11T03:08:15.641Z,6.90
2019-01-11T03:10:48.491Z,7.40
2019-01-11T03:13:17.766Z,5.77
2019-01-11T03:15:52.685Z,8.47
2019-01-11T03:18:23.491Z,6.47
2019-01-11T03:20:58.402Z,6.33
2019-01-11T03:23:32.347Z,6.50
2019-01-11T03:26:01.693Z,7.10
2019-01-11T03:28:33.755Z,7.63
2019-01-11T03:31:12.702Z,5.77
2019-01-11T03:33:43.403Z,6.80
2019-01-11T03:36:12.571Z,7.27
2019-01-11T03:38:41.889Z,6.90
2019-01-11T03:41:11.100Z,5.90
2019-01-11T03:43:42.506Z,6.27
2019-01-11T03:46:14.363Z,5.40
2019-01-11T03:48:46.058Z,6.13
2019-01-11T03:51:17.033Z,5.70
2019-01-11T03:53:47.438Z,7.47
2019-01-11T03:56:18.590Z,5.27
2019-01-11T03:58:49.444Z,5.70
2019-01-11T04:01:20.539Z,5.47
2019-01-11T04:03:51.460Z,5.60
2019-01-11T04:06:20.572Z,6.07
2019-01-11T04:08:56.097Z,5.80
2019-01-11T04:11:36.436Z,5.70
2019-01-11T04:14:05.926Z,5.73
2019-01-11T04:16:35.036Z,5.20
2019-01-11T04:19:10.966Z,5.00
2019-01-11T04:21:42.916Z,6.67
2019-01-11T04:24:12.001Z,5.50
2019-01-11T04:26:42.321Z,5.60
2019-01-11T04:29:18.270Z,5.23
2019-01-11T04:31:49.890Z,5.43
2019-01-11T04:34:19.425Z,5.70
2019-01-11T04:36:48.535Z,5.77
2019-01-11T04:39:19.501Z,5.47
2019-01-11T04:41:49.716Z,5.50
2019-01-11T04:44:27.192Z,5.80
2019-01-11T04:46:57.728Z,5.10
2019-01-11T04:49:28.782Z,5.07
2019-01-11T04:52:03.611Z,5.00
2019-01-11T04:54:32.455Z,5.00
2019-01-11T04:57:01.544Z,5.47
2019-01-11T04:59:30.651Z,4.50
2019-01-11T05:01:59.753Z,5.20
2019-01-11T05:04:30.163Z,5.20
2019-01-11T05:07:00.773Z,5.30
2019-01-11T05:09:29.865Z,5.27
2019-01-11T05:11:59.108Z,5.33
2019-01-11T05:14:29.832Z,4.83
2019-01-11T05:16:58.957Z,5.30
2019-01-11T05:19:28.067Z,5.50
2019-01-11T05:21:57.186Z,4.60
2019-01-11T05:24:29.288Z,5.57
2019-01-11T05:26:58.765Z,6.00
2019-01-11T05:29:30.380Z,6.40
2019-01-11T05:31:59.920Z,5.33
2019-01-11T05:34:29.622Z,5.73
2019-01-11T05:37:02.240Z,5.80
2019-01-11T05:39:31.822Z,5.37
2019-01-11T05:42:02.533Z,6.37
2019-01-11T05:44:34.646Z,5.03
2019-01-11T05:47:04.275Z,4.60
2019-01-11T05:49:34.725Z,5.50
2019-01-11T05:52:04.211Z,4.90
2019-01-11T05:54:33.427Z,4.93
2019-01-11T05:57:03.755Z,5.10
2019-01-11T05:59:38.119Z,5.60
2019-01-11T06:02:07.624Z,5.20
2019-01-11T06:04:45.381Z,6.03
2019-01-11T06:07:38.357Z,6.60
2019-01-11T06:10:10.384Z,6.57
2019-01-11T06:12:39.474Z,8.77
2019-01-11T06:15:08.769Z,5.80
2019-01-11T06:17:40.483Z,6.43
2019-01-11T06:20:15.114Z,6.83
2019-01-11T06:22:53.362Z,5.83
2019-01-11T06:25:23.431Z,5.90
2019-01-11T06:27:52.874Z,5.03
2019-01-11T06:30:23.342Z,4.33
2019-01-11T06:32:54.879Z,5.17
2019-01-11T06:35:25.566Z,4.03
2019-01-11T06:38:04.044Z,4.87
2019-01-11T06:40:33.149Z,5.00
2019-01-11T06:43:03.650Z,4.53
2019-01-11T06:45:33.235Z,4.13
2019-01-11T06:48:02.586Z,4.23
2019-01-11T06:50:38.685Z,4.50
2019-01-11T06:53:10.498Z,5.17
2019-01-11T06:55:41.522Z,5.60
2019-01-11T06:58:13.545Z,4.83
2019-01-11T07:00:45.711Z,6.27
2019-01-11T07:03:15.102Z,5.17
2019-01-11T07:05:45.347Z,4.83
2019-01-11T07:08:16.930Z,4.47
2019-01-11T07:10:47.419Z,6.10
2019-01-11T07:13:17.529Z,4.07
2019-01-11T07:15:49.999Z,4.63
2019-01-11T07:18:19.150Z,5.30
2019-01-11T07:20:48.309Z,6.30
2019-01-11T07:23:19.138Z,4.00
2019-01-11T07:25:53.605Z,5.00
2019-01-11T07:28:24.346Z,5.87
2019-01-11T07:31:06.705Z,5.40
2019-01-11T07:33:37.861Z,4.80
2019-01-11T07:36:25.885Z,5.30
2019-01-11T07:38:56.520Z,5.20
2019-01-11T07:41:40.693Z,5.27
2019-01-11T07:44:10.090Z,5.07
2019-01-11T07:46:40.828Z,5.53
2019-01-11T07:49:11.734Z,5.40
2019-01-11T07:51:47.490Z,6.17
2019-01-11T07:54:19.789Z,5.60
2019-01-11T07:56:50.106Z,6.73
2019-01-11T07:59:22.566Z,7.30
2019-01-11T08:01:52.080Z,6.20
2019-01-11T08:04:21.438Z,8.77
2019-01-11T08:06:51.059Z,8.93
2019-01-11T08:09:24.416Z,7.33
2019-01-11T08:11:54.781Z,8.10
2019-01-11T08:14:24.033Z,8.20
2019-01-11T08:16:56.099Z,7.27
2019-01-11T08:19:25.248Z,7.07
2019-01-11T08:21:54.601Z,8.00
2019-01-11T08:24:25.349Z,9.13
2019-01-11T08:27:11.684Z,7.03
2019-01-11T08:29:43.596Z,6.57
2019-01-11T08:32:12.761Z,6.37
2019-01-11T08:34:43.658Z,7.40
2019-01-11T08:37:16.075Z,6.60
2019-01-11T08:39:45.485Z,7.70
2019-01-11T08:42:20.557Z,6.77
2019-01-11T08:44:50.156Z,8.57
2019-01-11T08:47:19.265Z,7.07
2019-01-11T08:49:48.511Z,7.30
2019-01-11T08:52:17.640Z,7.77
2019-01-11T08:54:46.993Z,8.30
2019-01-11T08:57:17.656Z,9.23
2019-01-11T08:59:48.244Z,6.90
2019-01-11T09:02:20.700Z,6.70
2019-01-11T09:04:50.053Z,7.20
2019-01-11T09:07:20.365Z,6.40
2019-01-11T09:09:49.834Z,7.40
2019-01-11T09:12:21.007Z,7.33
2019-01-11T09:14:55.923Z,7.93
2019-01-11T09:17:28.174Z,7.37
2019-01-11T09:19:57.342Z,6.67
2019-01-11T09:22:26.494Z,8.40
2019-01-11T09:24:56.971Z,6.80
2019-01-11T09:27:26.073Z,6.87
2019-01-11T09:29:58.243Z,8.17
2019-01-11T09:32:33.543Z,8.70
2019-01-11T09:35:03.044Z,7.67
2019-01-11T09:37:35.996Z,6.90
2019-01-11T09:40:16.198Z,8.70
2019-01-11T09:42:52.008Z,7.33
2019-01-11T09:45:21.918Z,6.40
2019-01-11T09:47:52.170Z,7.60
2019-01-11T09:50:22.839Z,6.10
2019-01-11T09:52:51.923Z,6.57
2019-01-11T09:55:21.304Z,7.10
2019-01-11T09:57:52.627Z,8.30
2019-01-11T10:00:24.675Z,7.10
2019-01-11T10:03:05.061Z,7.37
2019-01-11T10:05:51.340Z,8.83
2019-01-11T10:08:27.230Z,8.17
2019-01-11T10:10:57.442Z,8.57
2019-01-11T10:13:28.201Z,11.40
2019-01-11T10:16:00.592Z,7.70
2019-01-11T10:18:29.871Z,7.27
2019-01-11T10:20:58.989Z,7.90
2019-01-11T10:23:28.449Z,8.17
2019-01-11T10:25:59.729Z,7.80
2019-01-11T10:28:28.882Z,9.30
2019-01-11T10:31:00.774Z,8.77
2019-01-11T10:33:36.329Z,8.37
2019-01-11T10:36:04.854Z,6.93
2019-01-11T10:38:39.198Z,7.37
2019-01-11T10:41:08.458Z,8.20
2019-01-11T10:43:38.081Z,7.30
2019-01-11T10:46:20.817Z,7.13
2019-01-11T10:48:49.915Z,6.73
2019-01-11T10:51:20.538Z,5.70
2019-01-11T10:53:50.842Z,5.70
2019-01-11T10:56:20.138Z,6.60
2019-01-11T10:58:54.712Z,8.10
2019-01-11T11:01:24.069Z,7.17
2019-01-11T11:03:55.598Z,6.90
2019-01-11T11:06:31.458Z,5.47
2019-01-11T11:09:04.790Z,6.10
2019-01-11T11:11:46.034Z,6.83
2019-01-11T11:14:15.128Z,6.70
2019-01-11T11:16:44.397Z,5.90
2019-01-11T11:19:14.810Z,6.83
2019-01-11T11:21:47.750Z,6.13
2019-01-11T11:24:17.464Z,7.07
2019-01-11T11:26:50.362Z,6.33
2019-01-11T11:29:19.540Z,5.60
2019-01-11T11:31:51.655Z,6.00
2019-01-11T11:34:27.890Z,5.53
2019-01-11T11:37:05.691Z,7.03
2019-01-11T11:39:34.953Z,6.97
2019-01-11T11:42:04.188Z,6.33
2019-01-11T11:44:34.766Z,6.20
2019-01-11T11:47:05.835Z,6.93
2019-01-11T11:49:35.027Z,6.37
2019-01-11T11:52:05.650Z,5.60
2019-01-11T11:54:43.177Z,5.40
2019-01-11T11:57:19.656Z,4.80
2019-01-11T11:59:50.257Z,6.25
2019-01-11T12:02:19.491Z,8.70
2019-01-11T12:04:48.566Z,6.80
2019-01-11T12:07:17.682Z,5.90
2019-01-11T12:09:50.828Z,5.47
2019-01-11T12:12:25.573Z,6.30
2019-01-11T12:14:55.163Z,6.77
2019-01-11T12:17:26.515Z,5.77
2019-01-11T12:19:57.198Z,6.77
2019-01-11T12:22:27.342Z,6.77
2019-01-11T12:24:59.443Z,8.23
2019-01-11T12:27:28.826Z,7.27
2019-01-11T12:30:01.559Z,6.00
2019-01-11T12:32:33.484Z,5.83
2019-01-11T12:35:02.993Z,6.37
2019-01-11T12:37:38.233Z,7.10
2019-01-11T12:40:08.584Z,8.10
2019-01-11T12:42:41.485Z,6.10
2019-01-11T12:45:14.481Z,6.07
2019-01-11T12:47:44.427Z,7.30
2019-01-11T12:50:26.576Z,6.33
2019-01-11T12:52:57.057Z,6.30
2019-01-11T12:55:27.701Z,8.00
2019-01-11T12:57:56.869Z,6.30
2019-01-11T13:00:26.333Z,7.07
2019-01-11T13:03:01.667Z,6.47
2019-01-11T13:05:36.295Z,8.00
2019-01-11T13:08:06.426Z,7.40
2019-01-11T13:10:39.866Z,6.33
2019-01-11T13:13:11.092Z,6.40
2019-01-11T13:15:43.948Z,5.57
2019-01-11T13:18:16.591Z,6.83
2019-01-11T13:20:47.040Z,6.17
2019-01-11T13:23:19.951Z,5.70
2019-01-11T13:25:50.859Z,6.10
2019-01-11T13:28:26.604Z,6.00
2019-01-11T13:30:55.904Z,5.17
2019-01-11T13:33:45.652Z,5.67
2019-01-11T13:36:24.294Z,5.33
2019-01-11T13:38:56.657Z,4.73
2019-01-11T13:41:27.387Z,5.50
2019-01-11T13:43:59.533Z,5.77
2019-01-11T13:46:31.549Z,6.03
2019-01-11T13:49:00.965Z,5.77
2019-01-11T13:51:30.240Z,5.93
2019-01-11T13:54:03.614Z,5.47
2019-01-11T13:56:40.856Z,4.87
2019-01-11T13:59:11.312Z,6.13
2019-01-11T14:01:42.118Z,6.03
2019-01-11T14:04:11.790Z,5.70
2019-01-11T14:06:46.251Z,6.30
2019-01-11T14:09:20.179Z,7.50
2019-01-11T14:11:51.958Z,7.23
2019-01-11T14:14:22.478Z,10.47
2019-01-11T14:16:55.000Z,8.03
2019-01-11T14:19:25.632Z,6.47
2019-01-11T14:21:59.949Z,7.53
2019-01-11T14:24:30.430Z,8.23
2019-01-11T14:27:00.613Z,7.03
2019-01-11T14:29:31.381Z,6.20
2019-01-11T14:32:00.829Z,5.83
2019-01-11T14:34:31.989Z,7.90
2019-01-11T14:37:09.561Z,6.93
2019-01-11T14:39:39.024Z,6.30
2019-01-11T14:42:12.118Z,4.90
2019-01-11T14:44:43.528Z,6.70
2019-01-11T14:47:12.667Z,6.40
2019-01-11T14:49:43.059Z,7.90
2019-01-11T14:52:13.351Z,8.00
2019-01-11T14:54:42.822Z,8.20
2019-01-11T14:57:13.420Z,5.80
2019-01-11T14:59:44.972Z,5.87
2019-01-11T15:02:14.187Z,5.33
2019-01-11T15:04:47.473Z,6.20
2019-01-11T15:07:19.935Z,6.00
2019-01-11T15:09:49.089Z,6.83
2019-01-11T15:12:18.227Z,6.63
2019-01-11T15:14:47.357Z,8.50
2019-01-11T15:17:17.575Z,6.20
2019-01-11T15:19:48.618Z,5.33
2019-01-11T15:22:19.000Z,6.30
2019-01-11T15:24:50.662Z,6.30
2019-01-11T15:27:23.953Z,7.20
2019-01-11T15:29:53.709Z,6.90
2019-01-11T15:32:27.796Z,5.97
2019-01-11T15:35:00.813Z,6.70
2019-01-11T15:37:30.209Z,7.40
2019-01-11T15:40:03.593Z,6.40
2019-01-11T15:42:33.403Z,7.40
2019-01-11T15:45:04.234Z,5.83
2019-01-11T15:47:33.350Z,6.30
2019-01-11T15:50:04.005Z,5.90
2019-01-11T15:52:33.684Z,5.50
2019-01-11T15:55:06.366Z,6.07
2019-01-11T15:57:43.290Z,5.70
2019-01-11T16:00:24.350Z,5.10
2019-01-11T16:03:00.994Z,5.07
2019-01-11T16:05:32.730Z,7.03
2019-01-11T16:08:01.819Z,7.67
2019-01-11T16:10:34.687Z,7.03
2019-01-11T16:13:19.675Z,10.40
2019-01-11T16:16:16.732Z,5.80
2019-01-11T16:18:45.951Z,6.87
2019-01-11T16:21:15.426Z,7.33
2019-01-11T16:23:46.389Z,7.60
2019-01-11T16:26:15.530Z,6.77
2019-01-11T16:28:52.109Z,7.50
2019-01-11T16:31:21.448Z,6.23
2019-01-11T16:33:53.494Z,6.67
2019-01-11T16:36:25.617Z,6.60
2019-01-11T16:38:56.563Z,4.90
2019-01-11T16:41:27.028Z,5.80
2019-01-11T16:43:56.560Z,5.57
2019-01-11T16:46:26.785Z,5.10
2019-01-11T16:48:55.957Z,6.13
2019-01-11T16:51:28.581Z,5.10
2019-01-11T16:53:57.716Z,4.73
2019-01-11T16:56:31.201Z,6.53
2019-01-11T16:59:02.142Z,5.90
2019-01-11T17:01:32.272Z,6.43
2019-01-11T17:04:05.052Z,5.50
2019-01-11T17:06:35.503Z,5.70
2019-01-11T17:09:07.136Z,5.20
2019-01-11T17:11:36.234Z,7.87
2019-01-11T17:14:06.320Z,5.90
2019-01-11T17:16:35.620Z,6.33
2019-01-11T17:19:08.312Z,6.00
2019-01-11T17:21:38.635Z,5.83
2019-01-11T17:24:09.486Z,5.67
2019-01-11T17:26:38.599Z,6.70
2019-01-11T17:29:07.779Z,5.90
2019-01-11T17:31:37.875Z,5.60
2019-01-11T17:34:08.411Z,5.80
2019-01-11T17:36:46.517Z,6.27
2019-01-11T17:39:18.887Z,6.90
2019-01-11T17:41:49.538Z,5.63
2019-01-11T17:44:18.721Z,5.93
2019-01-11T17:46:52.899Z,7.40
2019-01-11T17:49:22.031Z,6.27
2019-01-11T17:51:51.165Z,6.00
2019-01-11T17:54:21.428Z,6.93
2019-01-11T17:56:51.769Z,6.43
2019-01-11T17:59:25.616Z,4.60
2019-01-11T18:02:09.375Z,6.90
2019-01-11T18:04:38.496Z,6.37
2019-01-11T18:07:08.472Z,6.10
2019-01-11T18:09:37.591Z,6.00
2019-01-11T18:12:06.722Z,7.07
2019-01-11T18:14:35.882Z,7.33
2019-01-11T18:17:05.092Z,4.97
2019-01-11T18:19:34.260Z,5.20
2019-01-11T18:22:03.390Z,5.83
2019-01-11T18:24:35.015Z,5.93
2019-01-11T18:27:04.174Z,6.90
2019-01-11T18:29:33.289Z,5.43
2019-01-11T18:32:03.615Z,5.70
2019-01-11T18:34:35.393Z,5.90
2019-01-11T18:37:11.970Z,6.43
2019-01-11T18:39:44.413Z,5.40
2019-01-11T18:42:14.582Z,7.50
2019-01-11T18:44:43.685Z,7.30
2019-01-11T18:50:13.933Z,5.57
2019-01-11T18:52:43.076Z,7.17
2019-01-11T18:55:12.197Z,6.53
2019-01-11T18:57:46.455Z,6.03
2019-01-11T19:00:23.757Z,7.03
2019-01-11T19:02:53.043Z,7.23
2019-01-11T19:05:22.584Z,7.90
2019-01-11T19:07:58.767Z,5.70
2019-01-11T19:10:27.991Z,7.00
2019-01-11T19:12:57.377Z,7.50
2019-01-11T19:15:28.606Z,6.50
2019-01-11T19:17:59.521Z,6.53
2019-01-11T19:20:31.339Z,7.33
2019-01-11T19:23:06.030Z,6.83
2019-01-11T19:25:35.667Z,7.33
2019-01-11T19:28:05.997Z,6.40
2019-01-11T19:30:44.458Z,6.93
2019-01-11T19:33:13.633Z,7.37
2019-01-11T19:35:44.736Z,7.37
2019-01-11T19:38:15.324Z,6.63
2019-01-11T19:40:46.754Z,7.23
2019-01-11T19:43:17.279Z,7.70
2019-01-11T19:45:48.263Z,7.50
2019-01-11T19:48:20.970Z,7.90
2019-01-11T19:50:52.129Z,7.00
2019-01-11T19:53:27.231Z,7.67
2019-01-11T19:55:58.546Z,7.73
2019-01-11T19:58:24.728Z,8.17
2019-01-11T20:00:56.126Z,8.70
2019-01-11T20:03:26.134Z,8.23
2019-01-11T20:05:55.390Z,8.60
2019-01-11T20:08:24.527Z,8.27
2019-01-11T20:10:54.856Z,7.70
2019-01-11T20:13:27.612Z,9.00
2019-01-11T20:15:56.972Z,9.10
2019-01-11T20:18:29.684Z,8.20
2019-01-11T20:20:58.935Z,7.70
2019-01-11T20:23:34.482Z,8.13
2019-01-11T20:26:00.336Z,8.77
2019-01-11T20:28:32.136Z,7.73
2019-01-11T20:31:02.664Z,7.73
2019-01-11T20:33:32.110Z,9.47
2019-01-11T20:36:01.313Z,9.77
2019-01-11T20:38:30.461Z,7.63
2019-01-11T20:40:59.597Z,8.97
2019-01-11T20:43:28.725Z,7.83
2019-01-11T20:46:03.205Z,6.33
2019-01-11T20:48:32.335Z,5.90
2019-01-11T20:51:01.525Z,6.77
2019-01-11T20:53:30.739Z,6.50
2019-01-11T20:56:03.488Z,7.33
2019-01-11T20:58:32.629Z,9.30
2019-01-11T21:01:02.624Z,7.17
2019-01-11T21:03:31.798Z,6.43
2019-01-11T21:06:00.903Z,5.97
2019-01-11T21:08:31.141Z,6.93
2019-01-11T21:11:04.410Z,6.97
2019-01-11T21:13:37.310Z,6.33
2019-01-11T21:16:07.120Z,7.13
2019-01-11T21:18:36.513Z,6.90
2019-01-11T21:21:09.086Z,4.77
2019-01-11T21:23:38.208Z,5.80
2019-01-11T21:26:11.786Z,5.83
2019-01-11T21:28:46.450Z,4.73
2019-01-11T21:31:15.924Z,4.10
2019-01-11T21:33:49.524Z,4.10
2019-01-11T21:36:20.707Z,5.10
2019-01-11T21:38:49.835Z,4.23
2019-01-11T21:41:18.928Z,4.53
2019-01-11T21:43:48.054Z,3.70
2019-01-11T21:46:19.621Z,4.43
2019-01-11T21:48:49.284Z,3.33
2019-01-11T21:51:18.396Z,3.90
2019-01-11T21:53:55.732Z,3.57
2019-01-11T21:56:22.274Z,3.53
2019-01-11T21:58:54.827Z,3.07
2019-01-11T22:01:30.331Z,2.60
2019-01-11T22:03:59.641Z,3.70
2019-01-11T22:06:34.224Z,2.83
2019-01-11T22:09:04.823Z,2.13
2019-01-11T22:11:35.947Z,3.20
2019-01-11T22:14:05.524Z,2.93
2019-01-11T22:16:35.058Z,2.80
2019-01-11T22:19:04.552Z,2.70
2019-01-11T22:21:33.664Z,4.63
2019-01-11T22:24:03.496Z,3.40
2019-01-11T22:26:33.480Z,2.53
2019-01-11T22:29:08.151Z,2.47
2019-01-11T22:31:42.733Z,3.93
2019-01-11T22:34:17.586Z,2.20
2019-01-11T22:36:46.782Z,2.93
2019-01-11T22:39:16.061Z,3.43
2019-01-11T22:41:45.214Z,2.63
2019-01-11T22:44:14.365Z,3.70
2019-01-11T22:46:43.658Z,2.53
2019-01-11T22:49:12.758Z,3.13
2019-01-11T22:51:41.898Z,2.50
2019-01-11T22:54:13.441Z,2.53
2019-01-11T22:56:42.583Z,2.60
2019-01-11T22:59:13.871Z,2.60
2019-01-11T23:02:05.241Z,2.87
2019-01-11T23:04:43.584Z,2.40
2019-01-11T23:07:28.246Z,3.03
2019-01-11T23:10:32.324Z,3.73
2019-01-11T23:13:06.862Z,2.90
2019-01-11T23:16:01.705Z,3.00
2019-01-11T23:18:34.004Z,3.03
2019-01-11T23:21:09.816Z,3.00
2019-01-11T23:23:43.427Z,2.27
2019-01-11T23:26:14.685Z,2.53
2019-01-11T23:28:47.046Z,4.00
2019-01-11T23:31:16.459Z,3.30
2019-01-11T23:33:50.830Z,3.50
2019-01-11T23:36:19.961Z,3.30
2019-01-11T23:38:49.255Z,4.07
2019-01-11T23:41:31.575Z,2.87
2019-01-11T23:44:00.695Z,3.67
2019-01-11T23:46:29.795Z,2.77
2019-01-11T23:49:00.222Z,3.73
2019-01-11T23:51:31.771Z,3.00
2019-01-11T23:54:00.903Z,3.40
2019-01-11T23:56:30.006Z,3.10
2019-01-11T23:59:00.911Z,3.10
